KSPI/SPI METAR and TAF weather

Enter ICAO airport designator
Station Type Date Time Source
KSPI METAR 2019/10/15 18:52 UTC NOAA

KSPI 151852Z 22009KT 10SM OVC021 18/13 A2981 RMK AO2 SLP093 T01830133


Station Type Date Time Source
KSPI Decoded METAR 2019/10/15 18:52 UTC NOAA

ABRAHAM LINCOLN CAPITAL AIRPORT , IL, United States (KSPI) 39-51N 89-41W 181M
Oct 15, 2019 - 02:52 PM EDT / 2019.10.15 1852 UTC
Wind: from the SW (220 degrees) at 10 MPH (9 KT):0
Visibility: 10 mile(s):0
Sky conditions: overcast
Temperature: 64.9 F (18.3 C)
Dew Point: 55.9 F (13.3 C)
Relative Humidity: 72%
Pressure (altimeter): 29.81 in. Hg (1009 hPa)
ob: KSPI 151852Z 22009KT 10SM OVC021 18/13 A2981 RMK AO2 SLP093 T01830133
cycle: 19

Station Type Date Time Source
KSPI TAF 2019/10/15 18:15 UTC NOAA

TAF KSPI 151811Z 1518/1618 20010KT P6SM OVC025
FM152300 30012G20KT P6SM SCT030 BKN120
FM160200 31013G21KT P6SM BKN120
FM160700 31012G19KT P6SM BKN030

Example: see airport list